Time;durP1;ratioP1;P1;durP2;ratioP2;P2;SDS_P1;SDS_P2;PMS_P1;PMS_P2;Temp;Humidity;BMP_temperature;BMP_pressure;BME280_temperature;BME280_humidity;BME280_pressure;Samples;Min_cycle;Max_cycle;Signal;HPM_P1;HPM_P2
2022/10/18 00:00:33;;;;;;;;;;;;;;;23.74;48.14;98028.38;5052398;28;20360;-27
2022/10/18 00:02:58;;;;;;;;;;;;;;;23.75;48.24;98029.13;5054517;28;19912;-28
2022/10/18 00:05:24;;;;;;;;;;;;;;;23.74;48.15;98031.13;5054410;28;20363;-27
2022/10/18 00:07:49;;;;;;;;;;;;;;;23.67;48.31;98031.53;5054178;28;19912;-28
2022/10/18 00:10:14;;;;;;;;;;;;;;;23.71;48.34;98023.03;5053250;28;19908;-27
2022/10/18 00:12:40;;;;;;;;;;;;;;;23.69;48.08;98028.28;5052981;28;19952;-27
2022/10/18 00:15:06;;;;;;;;;;;;;;;23.70;48.17;98027.81;5054158;28;19915;-28
2022/10/18 00:17:33;;;;;;;;;;;;;;;23.73;47.96;98034.41;5054088;28;19912;-27
2022/10/18 00:19:59;;;;;;;;;;;;;;;23.69;47.88;98031.03;5054166;28;19908;-28
2022/10/18 00:22:24;;;;;;;;;;;;;;;23.70;48.01;98021.50;5052821;28;19913;-27
2022/10/18 00:24:50;;;;;;;;;;;;;;;23.70;47.69;98025.03;5053913;28;20327;-28
2022/10/18 00:27:15;;;;;;;;;;;;;;;23.67;47.98;98016.91;5054007;28;20395;-28
2022/10/18 00:29:40;;;;;;;;;;;;;;;23.71;47.54;98021.03;5052774;28;19915;-28
2022/10/18 00:32:07;;;;;;;;;;;;;;;23.69;47.50;98012.44;5053846;28;19916;-28
2022/10/18 00:34:33;;;;;;;;;;;;;;;23.63;47.94;98015.06;5053832;28;19930;-29
2022/10/18 00:36:58;;;;;;;;;;;;;;;23.66;47.45;98013.38;5053784;28;20416;-28
2022/10/18 00:39:29;;;;;;;;;;;;;;;23.62;47.84;98010.78;5053450;28;19920;-29
2022/10/18 00:41:55;;;;;;;;;;;;;;;23.62;47.86;98010.00;5052475;28;19909;-27
2022/10/18 00:44:23;;;;;;;;;;;;;;;23.58;47.93;98010.22;5053960;28;20276;-28
2022/10/18 00:46:50;;;;;;;;;;;;;;;23.63;47.60;98012.31;5063870;28;19912;-28
2022/10/18 00:49:32;;;;;;;;;;;;;;;23.59;47.75;97995.13;5073669;28;19908;-28
2022/10/18 00:52:01;;;;;;;;;;;;;;;23.59;47.62;97991.59;5073636;28;19958;-28
2022/10/18 00:54:28;;;;;;;;;;;;;;;23.57;47.81;98002.38;5073674;28;19909;-28
2022/10/18 00:56:54;;;;;;;;;;;;;;;23.56;47.33;98000.84;5072439;28;19958;-28
2022/10/18 00:59:20;;;;;;;;;;;;;;;23.57;47.63;98002.38;5073556;28;19943;-28
2022/10/18 01:01:46;;;;;;;;;;;;;;;23.56;47.65;97995.31;5073628;28;19942;-29
2022/10/18 01:04:12;;;;;;;;;;;;;;;23.58;47.61;97995.59;5073548;28;19915;-27
2022/10/18 01:06:46;;;;;;;;;;;;;;;23.58;47.66;97992.84;5073578;28;20357;-28
2022/10/18 01:09:40;;;;;;;;;;;;;;;23.57;47.73;97996.84;5073620;28;20356;-27
2022/10/18 01:12:23;;;;;;;;;;;;;;;23.57;47.89;97992.06;5070228;28;20242;-27
2022/10/18 01:14:53;;;;;;;;;;;;;;;23.54;47.67;97987.47;5077755;28;19955;-28
2022/10/18 01:17:24;;;;;;;;;;;;;;;23.54;47.67;97986.72;5077548;28;20016;-28
2022/10/18 01:19:49;;;;;;;;;;;;;;;23.56;47.79;97984.22;5077496;28;19944;-28
2022/10/18 01:22:53;;;;;;;;;;;;;;;23.57;47.74;97986.53;5076054;28;20305;-28
2022/10/18 01:25:30;;;;;;;;;;;;;;;23.55;47.78;97986.25;5055698;28;20341;-27
2022/10/18 01:28:01;;;;;;;;;;;;;;;23.58;47.72;97981.75;5055479;28;19909;-28
2022/10/18 01:30:42;;;;;;;;;;;;;;;23.48;47.80;97983.06;5055130;28;19916;-27
2022/10/18 01:33:10;;;;;;;;;;;;;;;23.47;47.67;97985.06;5055416;28;19908;-28
2022/10/18 01:35:39;;;;;;;;;;;;;;;23.53;47.72;97980.41;5055234;28;19908;-28
2022/10/18 01:38:08;;;;;;;;;;;;;;;23.53;47.62;97974.09;5051973;28;19928;-27
2022/10/18 01:40:34;;;;;;;;;;;;;;;23.50;47.82;97981.34;5053235;28;19913;-28
2022/10/18 01:43:00;;;;;;;;;;;;;;;23.51;47.76;97973.81;5038425;28;19909;-27
2022/10/18 01:45:27;;;;;;;;;;;;;;;23.50;47.72;97983.31;5055027;28;19919;-27
2022/10/18 01:47:53;;;;;;;;;;;;;;;23.48;47.61;97985.81;5038009;28;19916;-27
2022/10/18 01:50:28;;;;;;;;;;;;;;;23.48;47.78;97972.75;5055202;28;20384;-27
2022/10/18 01:52:55;;;;;;;;;;;;;;;23.47;47.80;97976.75;5055190;28;20266;-28
2022/10/18 01:55:24;;;;;;;;;;;;;;;23.43;47.89;97978.16;5059263;28;19908;-28
2022/10/18 01:58:10;;;;;;;;;;;;;;;23.42;47.78;97962.78;5077004;28;19999;-27
2022/10/18 02:00:40;;;;;;;;;;;;;;;23.43;47.84;97965.09;5076405;28;19964;-27
2022/10/18 02:03:13;;;;;;;;;;;;;;;23.42;47.70;97977.41;5075867;28;19961;-29
2022/10/18 02:05:42;;;;;;;;;;;;;;;23.43;47.96;97970.63;5076712;28;19908;-28
2022/10/18 02:08:08;;;;;;;;;;;;;;;23.46;47.66;97975.22;5077092;28;19932;-27
2022/10/18 02:10:37;;;;;;;;;;;;;;;23.43;47.50;97973.41;5076508;28;19915;-28
2022/10/18 02:13:03;;;;;;;;;;;;;;;23.43;47.54;97972.63;5076433;28;19908;-28
2022/10/18 02:15:33;;;;;;;;;;;;;;;23.44;47.92;97968.63;5076639;28;19912;-30
2022/10/18 02:18:03;;;;;;;;;;;;;;;23.38;47.92;97962.22;5076387;28;19912;-28
2022/10/18 02:20:31;;;;;;;;;;;;;;;23.44;47.85;97966.63;5076315;28;20289;-27
2022/10/18 02:22:58;;;;;;;;;;;;;;;23.42;47.77;97968.34;5075780;28;19975;-28
2022/10/18 02:25:26;;;;;;;;;;;;;;;23.29;47.87;97954.75;5076168;28;19908;-27
2022/10/18 02:27:51;;;;;;;;;;;;;;;23.39;47.32;97955.44;5076545;28;19915;-27
2022/10/18 02:30:17;;;;;;;;;;;;;;;23.44;47.37;97958.31;5076240;28;20332;-28
2022/10/18 02:32:46;;;;;;;;;;;;;;;23.45;46.89;97956.31;5076579;28;19908;-27
2022/10/18 02:35:17;;;;;;;;;;;;;;;23.43;47.19;97958.78;5076062;28;19909;-27
2022/10/18 02:37:44;;;;;;;;;;;;;;;23.37;47.34;97963.47;5076107;28;20346;-27
2022/10/18 02:40:10;;;;;;;;;;;;;;;23.39;47.26;97960.97;5076061;28;19966;-28
2022/10/18 02:42:37;;;;;;;;;;;;;;;23.36;47.49;97959.16;5075871;28;19909;-28
2022/10/18 02:45:03;;;;;;;;;;;;;;;23.37;47.24;97969.75;5075922;28;20005;-27
2022/10/18 02:47:30;;;;;;;;;;;;;;;23.43;47.05;97975.41;5075727;28;19931;-27
2022/10/18 02:49:55;;;;;;;;;;;;;;;23.36;47.41;97971.00;5076030;28;19919;-30
2022/10/18 02:52:21;;;;;;;;;;;;;;;23.34;47.43;97964.41;5075883;28;19908;-27
2022/10/18 02:54:46;;;;;;;;;;;;;;;23.38;47.54;97976.81;5075862;28;19908;-28
2022/10/18 02:57:11;;;;;;;;;;;;;;;23.35;47.62;97963.94;5076001;28;19909;-27
2022/10/18 02:59:37;;;;;;;;;;;;;;;23.42;47.44;97973.88;5075493;28;19959;-28
2022/10/18 03:02:03;;;;;;;;;;;;;;;23.41;47.23;97966.78;5075699;28;19908;-28
2022/10/18 03:04:29;;;;;;;;;;;;;;;23.37;47.61;97960.69;5075525;28;19908;-27
2022/10/18 03:07:25;;;;;;;;;;;;;;;23.33;47.69;97954.56;5075581;28;19915;-27
2022/10/18 03:09:50;;;;;;;;;;;;;;;23.35;47.53;97957.63;5075348;28;20372;-28
2022/10/18 03:12:17;;;;;;;;;;;;;;;23.36;47.35;97965.47;5075376;28;20053;-27
2022/10/18 03:14:42;;;;;;;;;;;;;;;23.27;47.48;97960.75;5075427;28;19912;-28
2022/10/18 03:17:07;;;;;;;;;;;;;;;23.39;47.36;97963.75;5075511;28;20279;-28
2022/10/18 03:19:33;;;;;;;;;;;;;;;23.32;47.05;97970.41;5075077;28;19912;-27
2022/10/18 03:21:58;;;;;;;;;;;;;;;23.22;47.33;97963.44;5075291;28;19908;-28
2022/10/18 03:24:23;;;;;;;;;;;;;;;23.28;47.09;97965.06;5074988;28;19908;-28
2022/10/18 03:26:49;;;;;;;;;;;;;;;23.29;47.29;97961.06;5075106;28;19954;-27
2022/10/18 03:29:14;;;;;;;;;;;;;;;23.20;47.26;97963.13;5074991;28;19931;-27
2022/10/18 03:31:39;;;;;;;;;;;;;;;23.19;47.40;97954.06;5075032;28;19966;-27
2022/10/18 03:34:05;;;;;;;;;;;;;;;23.26;46.75;97955.69;5074838;28;19943;-28
2022/10/18 03:36:32;;;;;;;;;;;;;;;23.26;47.04;97962.00;5074985;28;20010;-28
2022/10/18 03:38:57;;;;;;;;;;;;;;;23.27;46.91;97952.47;5074565;28;19916;-27
2022/10/18 03:41:23;;;;;;;;;;;;;;;23.22;47.04;97955.91;5073905;28;20441;-27
2022/10/18 03:43:49;;;;;;;;;;;;;;;23.24;47.08;97972.78;5074777;28;19908;-28
2022/10/18 03:46:16;;;;;;;;;;;;;;;23.26;47.31;97964.75;5074571;28;19998;-27
2022/10/18 03:48:41;;;;;;;;;;;;;;;23.25;47.07;97966.00;5074783;28;19909;-27
2022/10/18 03:51:06;;;;;;;;;;;;;;;23.24;47.57;97964.47;5074593;28;20012;-28
2022/10/18 03:53:32;;;;;;;;;;;;;;;23.24;47.33;97961.69;5074796;28;19909;-28
2022/10/18 03:55:57;;;;;;;;;;;;;;;23.29;47.44;97968.59;5075028;28;19915;-27
2022/10/18 03:58:23;;;;;;;;;;;;;;;23.33;47.48;97966.41;5074443;28;19909;-28
2022/10/18 04:00:49;;;;;;;;;;;;;;;23.24;47.76;97970.00;5074331;28;20003;-27
2022/10/18 04:03:15;;;;;;;;;;;;;;;23.25;47.59;97966.00;5074609;28;20280;-28
2022/10/18 04:05:40;;;;;;;;;;;;;;;23.22;47.82;97966.97;5074672;28;19912;-27
2022/10/18 04:08:05;;;;;;;;;;;;;;;23.25;47.90;97968.78;5074388;28;19914;-28
2022/10/18 04:10:31;;;;;;;;;;;;;;;23.25;47.69;97960.47;5074299;28;19915;-29
2022/10/18 04:12:57;;;;;;;;;;;;;;;23.26;47.66;97964.75;5074313;28;19909;-28
2022/10/18 04:15:24;;;;;;;;;;;;;;;23.24;47.79;97961.69;5074114;28;19909;-27
2022/10/18 04:17:49;;;;;;;;;;;;;;;23.25;47.64;97963.22;5074028;28;20372;-27
2022/10/18 04:20:14;;;;;;;;;;;;;;;23.25;47.77;97966.00;5074052;28;20012;-28
2022/10/18 04:22:40;;;;;;;;;;;;;;;23.20;47.74;97963.13;5074208;28;19920;-27
2022/10/18 04:25:05;;;;;;;;;;;;;;;23.21;47.72;97967.44;5074188;28;20018;-29
2022/10/18 04:27:31;;;;;;;;;;;;;;;23.23;47.26;97956.66;5073836;28;19912;-27
2022/10/18 04:29:56;;;;;;;;;;;;;;;23.20;47.50;97966.69;5074001;28;19912;-27
2022/10/18 04:32:22;;;;;;;;;;;;;;;23.19;47.30;97970.69;5073992;28;19908;-28
2022/10/18 04:34:47;;;;;;;;;;;;;;;23.19;47.48;97967.91;5074088;28;20372;-27
2022/10/18 04:37:12;;;;;;;;;;;;;;;23.19;47.36;97967.16;5074002;28;20272;-28
2022/10/18 04:39:38;;;;;;;;;;;;;;;23.15;47.26;97956.25;5073490;28;19923;-27
2022/10/18 04:42:03;;;;;;;;;;;;;;;23.15;47.41;97959.00;5073913;28;19908;-27
2022/10/18 04:44:28;;;;;;;;;;;;;;;23.18;47.59;97957.31;5073715;28;19930;-27
2022/10/18 04:46:54;;;;;;;;;;;;;;;23.12;47.37;97959.22;5073578;28;19909;-28
2022/10/18 04:49:19;;;;;;;;;;;;;;;23.13;47.89;97949.66;5073748;28;19912;-28
2022/10/18 04:51:45;;;;;;;;;;;;;;;23.11;47.67;97941.09;5073964;28;19916;-28
2022/10/18 04:54:11;;;;;;;;;;;;;;;23.11;47.71;97950.16;5073896;28;20273;-27
2022/10/18 04:56:36;;;;;;;;;;;;;;;23.11;47.45;97944.63;5073846;28;19954;-28
2022/10/18 04:59:02;;;;;;;;;;;;;;;23.14;47.32;97940.88;5073544;28;20356;-28
2022/10/18 05:01:27;;;;;;;;;;;;;;;23.10;47.47;97953.38;5073681;28;19912;-27
2022/10/18 05:03:53;;;;;;;;;;;;;;;23.11;47.38;97950.16;5073609;28;20375;-27
2022/10/18 05:06:18;;;;;;;;;;;;;;;23.08;47.59;97951.09;5073567;28;20291;-27
2022/10/18 05:08:44;;;;;;;;;;;;;;;23.06;47.64;97948.03;5073503;28;19915;-28
2022/10/18 05:11:09;;;;;;;;;;;;;;;23.03;47.82;97948.97;5073520;28;19908;-27
2022/10/18 05:13:35;;;;;;;;;;;;;;;23.09;47.65;97940.78;5073558;28;19915;-28
2022/10/18 05:16:01;;;;;;;;;;;;;;;23.11;47.58;97941.84;5073548;28;19915;-27
2022/10/18 05:18:27;;;;;;;;;;;;;;;23.07;47.47;97944.03;5073474;28;19961;-28
2022/10/18 05:20:53;;;;;;;;;;;;;;;23.08;47.36;97944.78;5073428;28;19916;-27
2022/10/18 05:23:19;;;;;;;;;;;;;;;23.05;47.72;97940.97;5073565;28;19986;-29
2022/10/18 05:25:44;;;;;;;;;;;;;;;23.11;47.29;97936.31;5073600;28;20360;-28
2022/10/18 05:28:10;;;;;;;;;;;;;;;23.14;47.03;97938.13;5073440;28;20343;-29
2022/10/18 05:30:39;;;;;;;;;;;;;;;23.11;47.50;97939.09;5073258;28;19904;-28
2022/10/18 05:33:04;;;;;;;;;;;;;;;23.08;47.30;97940.03;5073367;28;19908;-27
2022/10/18 05:35:30;;;;;;;;;;;;;;;23.14;47.51;97942.88;5072092;28;19919;-28
2022/10/18 05:37:55;;;;;;;;;;;;;;;23.13;47.19;97941.34;5073048;28;19966;-28
2022/10/18 05:40:21;;;;;;;;;;;;;;;23.12;47.04;97940.59;5072117;28;19919;-27
2022/10/18 05:42:50;;;;;;;;;;;;;;;23.07;47.53;97937.72;5073210;28;19916;-28
2022/10/18 05:45:15;;;;;;;;;;;;;;;23.04;47.30;97935.91;5073190;28;19931;-28
2022/10/18 05:47:41;;;;;;;;;;;;;;;23.08;47.29;97934.50;5073112;28;20352;-29
2022/10/18 05:50:07;;;;;;;;;;;;;;;23.13;47.46;97938.59;5073203;28;19908;-28
2022/10/18 05:52:33;;;;;;;;;;;;;;;23.13;47.27;97942.13;5073381;28;19908;-28
2022/10/18 05:54:58;;;;;;;;;;;;;;;23.15;47.21;97947.19;5073381;28;19919;-29
2022/10/18 05:57:24;;;;;;;;;;;;;;;23.12;47.40;97948.16;5073015;28;19919;-28
2022/10/18 05:59:49;;;;;;;;;;;;;;;23.07;47.52;97943.25;5076357;28;19913;-28
2022/10/18 06:02:16;;;;;;;;;;;;;;;23.09;47.68;97946.31;5077081;28;19970;-28
2022/10/18 06:04:41;;;;;;;;;;;;;;;23.08;47.38;97937.25;5077056;28;19920;-28
2022/10/18 06:07:07;;;;;;;;;;;;;;;23.10;47.53;97951.38;5076768;28;19912;-28
2022/10/18 06:09:32;;;;;;;;;;;;;;;23.10;47.47;97947.84;5076597;28;20261;-28
2022/10/18 06:11:58;;;;;;;;;;;;;;;23.15;47.47;97953.47;5076718;28;19908;-29
2022/10/18 06:14:24;;;;;;;;;;;;;;;23.13;47.52;97950.41;5076399;28;20280;-28
2022/10/18 06:16:50;;;;;;;;;;;;;;;23.06;47.52;97953.56;5075281;28;19908;-27
2022/10/18 06:19:15;;;;;;;;;;;;;;;23.10;47.66;97951.38;5074882;28;19983;-28
2022/10/18 06:21:42;;;;;;;;;;;;;;;23.01;47.89;97951.44;5068143;28;19979;-27
2022/10/18 06:24:07;;;;;;;;;;;;;;;23.02;48.08;97950.19;5054444;28;19912;-28
2022/10/18 06:26:32;;;;;;;;;;;;;;;23.08;47.75;97944.78;5067117;28;19912;-27
2022/10/18 06:28:58;;;;;;;;;;;;;;;23.05;48.19;97954.03;5070969;28;19908;-29
2022/10/18 06:31:23;;;;;;;;;;;;;;;23.08;48.01;97945.56;5073968;28;20285;-28
2022/10/18 06:33:49;;;;;;;;;;;;;;;23.10;48.06;97948.63;5074275;28;19935;-30
2022/10/18 06:36:20;;;;;;;;;;;;;;;23.08;48.34;97953.84;5074197;28;20339;-27
2022/10/18 06:38:46;;;;;;;;;;;;;;;23.06;48.10;97953.56;5060918;28;19920;-28
2022/10/18 06:41:11;;;;;;;;;;;;;;;23.06;48.39;97956.31;5053783;28;19996;-28
2022/10/18 06:43:37;;;;;;;;;;;;;;;23.08;48.17;97951.09;5053687;28;19916;-28
2022/10/18 06:46:04;;;;;;;;;;;;;;;23.07;48.50;97949.56;5053727;28;19982;-28
2022/10/18 06:48:30;;;;;;;;;;;;;;;23.09;48.46;97960.94;5053387;28;19909;-28
2022/10/18 06:50:59;;;;;;;;;;;;;;;23.07;48.62;97962.63;5053780;28;19992;-28
2022/10/18 06:53:25;;;;;;;;;;;;;;;23.03;48.58;97962.03;5053856;28;19956;-27
2022/10/18 06:55:51;;;;;;;;;;;;;;;23.11;48.31;97969.53;5053566;28;19920;-29
2022/10/18 06:58:16;;;;;;;;;;;;;;;23.10;48.26;97973.53;5053886;28;19913;-27
2022/10/18 07:00:44;;;;;;;;;;;;;;;23.07;48.74;97968.16;5053736;28;20404;-29
2022/10/18 07:03:09;;;;;;;;;;;;;;;23.08;48.76;97970.47;5053733;28;19919;-28
2022/10/18 07:05:34;;;;;;;;;;;;;;;23.12;48.76;97979.31;5053663;28;19912;-28
2022/10/18 07:08:00;;;;;;;;;;;;;;;23.08;48.95;97978.75;5053265;28;19920;-27
2022/10/18 07:10:27;;;;;;;;;;;;;;;23.14;48.73;97976.09;5053193;28;19916;-28
2022/10/18 07:12:52;;;;;;;;;;;;;;;23.05;49.00;97985.22;5053463;28;19908;-29
2022/10/18 07:15:18;;;;;;;;;;;;;;;23.02;49.41;97977.88;5066626;28;20375;-28
2022/10/18 07:17:47;;;;;;;;;;;;;;;23.06;49.37;97986.00;5073439;28;20020;-28
2022/10/18 07:20:13;;;;;;;;;;;;;;;23.02;49.24;97988.19;5073188;28;19916;-28
2022/10/18 07:22:38;;;;;;;;;;;;;;;22.40;51.08;97991.56;5073110;28;19912;-27
2022/10/18 07:25:04;;;;;;;;;;;;;;;22.20;54.52;97984.59;5073057;28;19958;-27
2022/10/18 07:27:30;;;;;;;;;;;;;;;21.80;55.87;97976.56;5071792;28;19973;-29
2022/10/18 07:29:55;;;;;;;;;;;;;;;22.13;55.21;97984.91;5073202;28;20411;-28
2022/10/18 07:32:20;;;;;;;;;;;;;;;22.48;53.78;97976.97;5071476;28;19916;-26
2022/10/18 07:34:46;;;;;;;;;;;;;;;22.80;52.73;97983.72;5073050;28;19912;-27
2022/10/18 07:37:11;;;;;;;;;;;;;;;22.83;52.20;97982.00;5071485;28;20683;-27
2022/10/18 07:39:37;;;;;;;;;;;;;;;22.95;51.70;97983.78;5072515;28;19974;-26
2022/10/18 07:42:02;;;;;;;;;;;;;;;23.07;51.46;97980.00;5072996;28;19908;-27
2022/10/18 07:44:46;;;;;;;;;;;;;;;23.06;51.45;97975.69;5072703;28;20360;-27
2022/10/18 07:47:12;;;;;;;;;;;;;;;23.07;51.06;97977.22;5072879;28;20011;-27
2022/10/18 07:49:37;;;;;;;;;;;;;;;23.12;51.41;97973.78;5072459;28;19995;-28
2022/10/18 07:52:02;;;;;;;;;;;;;;;23.16;51.24;97979.91;5054540;28;19999;-27
2022/10/18 07:54:28;;;;;;;;;;;;;;;23.14;51.34;97965.03;5054543;28;20012;-26
2022/10/18 07:56:53;;;;;;;;;;;;;;;23.06;51.49;97975.69;5054762;28;19909;-27
2022/10/18 07:59:18;;;;;;;;;;;;;;;23.04;51.71;97966.34;5054414;28;19917;-27
2022/10/18 08:01:49;;;;;;;;;;;;;;;23.07;51.21;97977.22;5054480;28;19999;-27
2022/10/18 08:04:15;;;;;;;;;;;;;;;23.08;51.44;97981.53;5054406;28;19954;-27
2022/10/18 08:06:41;;;;;;;;;;;;;;;22.55;52.67;97979.38;5054286;28;20334;-27
2022/10/18 08:09:06;;;;;;;;;;;;;;;22.76;52.59;97980.34;5054434;28;20408;-27
2022/10/18 08:11:31;;;;;;;;;;;;;;;22.98;51.75;97982.84;5054327;28;20054;-27
2022/10/18 08:13:57;;;;;;;;;;;;;;;23.02;52.08;97985.41;5054488;28;19954;-27
2022/10/18 08:16:23;;;;;;;;;;;;;;;23.05;51.90;97993.53;5053666;28;19908;-27
2022/10/18 08:18:50;;;;;;;;;;;;;;;23.02;52.01;97991.72;5052477;28;20357;-28
2022/10/18 08:21:16;;;;;;;;;;;;;;;22.99;52.03;97992.66;5068780;28;19923;-27
2022/10/18 08:23:42;;;;;;;;;;;;;;;23.10;51.63;97987.38;5054512;28;20338;-27
2022/10/18 08:26:09;;;;;;;;;;;;;;;23.00;51.84;97983.09;5053930;28;19916;-26
2022/10/18 08:28:35;;;;;;;;;;;;;;;23.00;52.14;97993.41;5053991;28;20393;-26
2022/10/18 08:31:09;;;;;;;;;;;;;;;22.96;52.39;97992.84;5053968;28;19962;-27
2022/10/18 08:33:35;;;;;;;;;;;;;;;22.97;52.46;97994.38;5052926;28;20372;-28
2022/10/18 08:36:06;;;;;;;;;;;;;;;23.05;51.96;97990.00;5057378;28;19944;-28
2022/10/18 08:38:32;;;;;;;;;;;;;;;23.06;52.29;97986.75;5072737;28;20382;-27
2022/10/18 08:40:59;;;;;;;;;;;;;;;23.13;52.15;97983.63;5073396;28;19955;-27
2022/10/18 08:43:24;;;;;;;;;;;;;;;23.08;51.94;97981.53;5072492;28;19921;-27
2022/10/18 08:45:53;;;;;;;;;;;;;;;23.17;51.97;97980.69;5074046;28;19912;-27
2022/10/18 08:48:40;;;;;;;;;;;;;;;23.11;51.82;97988.13;5074337;28;20352;-27
2022/10/18 08:51:12;;;;;;;;;;;;;;;23.03;52.92;97984.16;5073961;28;19916;-27
2022/10/18 08:53:53;;;;;;;;;;;;;;;22.99;52.17;97992.66;5073776;28;19960;-27
2022/10/18 08:56:22;;;;;;;;;;;;;;;22.88;52.59;97982.13;5073704;28;19908;-27
2022/10/18 08:58:49;;;;;;;;;;;;;;;22.95;52.14;97992.06;5073510;28;20237;-27
2022/10/18 09:01:33;;;;;;;;;;;;;;;22.73;54.25;97981.28;5070535;28;19924;-27
2022/10/18 09:04:04;;;;;;;;;;;;;;;22.89;53.04;97988.41;5073201;28;19908;-26
2022/10/18 09:06:34;;;;;;;;;;;;;;;22.89;53.28;97982.88;5073694;28;19908;-28
2022/10/18 09:09:05;;;;;;;;;;;;;;;23.06;52.85;97977.69;5073377;28;19908;-26
2022/10/18 09:11:33;;;;;;;;;;;;;;;22.95;52.93;97981.00;5073632;28;20007;-26
2022/10/18 09:14:11;;;;;;;;;;;;;;;22.77;53.71;97976.34;5073577;28;19915;-28
2022/10/18 09:16:54;;;;;;;;;;;;;;;23.06;52.69;97980.47;5073547;28;19953;-27
2022/10/18 09:19:20;;;;;;;;;;;;;;;23.03;53.50;97979.41;5073389;28;19908;-26
2022/10/18 09:21:52;;;;;;;;;;;;;;;22.96;54.13;97971.47;5073551;28;19915;-27
2022/10/18 09:24:39;;;;;;;;;;;;;;;22.92;55.00;97981.94;5073543;28;19909;-27
2022/10/18 09:27:15;;;;;;;;;;;;;;;22.61;55.74;97973.22;5073447;28;19943;-27
2022/10/18 09:29:41;;;;;;;;;;;;;;;22.79;55.48;97975.88;5073562;28;19965;-27
2022/10/18 09:32:18;;;;;;;;;;;;;;;22.73;55.18;97972.22;5072278;28;19916;-27
2022/10/18 09:34:49;;;;;;;;;;;;;;;23.03;53.55;97973.09;5077619;28;20276;-27
2022/10/18 09:37:18;;;;;;;;;;;;;;;23.00;53.96;97972.03;5077307;28;19963;-26
2022/10/18 09:39:44;;;;;;;;;;;;;;;22.98;53.81;97971.78;5076928;28;20307;-26
2022/10/18 09:42:27;;;;;;;;;;;;;;;22.93;53.85;97972.41;5076988;28;19920;-28
2022/10/18 09:44:55;;;;;;;;;;;;;;;23.17;52.53;97969.63;5075705;28;19908;-27
2022/10/18 09:47:24;;;;;;;;;;;;;;;23.02;53.19;97966.03;5077351;28;19912;-26
2022/10/18 09:50:00;;;;;;;;;;;;;;;23.13;52.99;97967.03;5069853;28;19915;-27
2022/10/18 09:52:30;;;;;;;;;;;;;;;23.14;52.94;97965.78;5054688;28;19920;-27
2022/10/18 09:54:59;;;;;;;;;;;;;;;23.21;52.37;97961.91;5056588;28;20357;-26
2022/10/18 09:57:50;;;;;;;;;;;;;;;23.10;52.89;97959.69;5055463;28;20340;-26
2022/10/18 10:00:22;;;;;;;;;;;;;;;23.23;52.37;97951.91;5056922;28;19916;-26
2022/10/18 10:02:47;;;;;;;;;;;;;;;23.24;52.13;97947.88;5056778;28;19908;-27
2022/10/18 10:05:13;;;;;;;;;;;;;;;23.21;51.98;97945.31;5056656;28;19915;-26
2022/10/18 10:07:43;;;;;;;;;;;;;;;23.24;52.02;97939.56;5056581;28;19909;-26
2022/10/18 10:10:21;;;;;;;;;;;;;;;23.31;51.91;97951.50;5056701;28;19909;-27
2022/10/18 10:12:46;;;;;;;;;;;;;;;23.30;51.61;97950.75;5056723;28;19909;-28
2022/10/18 10:15:15;;;;;;;;;;;;;;;23.26;52.51;97945.38;5056701;28;20415;-28
2022/10/18 10:17:41;;;;;;;;;;;;;;;23.27;52.17;97944.16;5056371;28;19909;-26
2022/10/18 10:20:16;;;;;;;;;;;;;;;23.19;52.22;97945.00;5056321;28;20012;-27
2022/10/18 10:22:43;;;;;;;;;;;;;;;23.20;52.07;97936.22;5056315;28;19915;-27
2022/10/18 10:25:19;;;;;;;;;;;;;;;23.25;52.10;97938.31;5056394;28;19915;-26
2022/10/18 10:27:44;;;;;;;;;;;;;;;23.26;51.92;97931.56;5056443;28;20463;-26
2022/10/18 10:30:27;;;;;;;;;;;;;;;23.29;51.67;97933.38;5056092;28;20087;-26
2022/10/18 10:32:53;;;;;;;;;;;;;;;23.29;51.81;97932.59;5054637;28;19915;-26
2022/10/18 10:35:19;;;;;;;;;;;;;;;23.27;52.00;97935.84;5056425;28;19915;-27
2022/10/18 10:37:51;;;;;;;;;;;;;;;23.25;52.19;97932.78;5056381;28;19968;-27
2022/10/18 10:40:18;;;;;;;;;;;;;;;23.28;52.01;97926.31;5056062;28;20373;-27
2022/10/18 10:42:51;;;;;;;;;;;;;;;23.32;51.60;97926.13;5055968;28;19916;-27
2022/10/18 10:45:18;;;;;;;;;;;;;;;23.29;51.55;97918.78;5055462;28;19908;-26
2022/10/18 10:47:44;;;;;;;;;;;;;;;23.32;51.51;97919.81;5055755;28;20285;-26
2022/10/18 10:50:13;;;;;;;;;;;;;;;23.34;51.46;97920.13;5055957;28;19908;-27
2022/10/18 10:52:39;;;;;;;;;;;;;;;23.34;50.88;97920.88;5055959;28;19909;-26
2022/10/18 10:55:14;;;;;;;;;;;;;;;23.33;51.20;97922.13;5055712;28;19915;-26
2022/10/18 10:57:42;;;;;;;;;;;;;;;23.36;51.30;97917.66;5054430;28;20288;-26
2022/10/18 11:00:37;;;;;;;;;;;;;;;23.35;50.63;97916.13;5055653;28;19913;-26
2022/10/18 11:03:22;;;;;;;;;;;;;;;23.36;50.40;97910.09;5054590;28;19943;-27
2022/10/18 11:05:53;;;;;;;;;;;;;;;23.37;50.13;97910.88;5055813;28;20337;-26
2022/10/18 11:08:21;;;;;;;;;;;;;;;23.40;50.25;97901.59;5055822;28;19916;-27
2022/10/18 11:10:59;;;;;;;;;;;;;;;23.31;48.65;97891.38;5055540;28;19908;-27
2022/10/18 11:13:35;;;;;;;;;;;;;;;23.24;50.63;97892.50;5055420;28;19999;-26
2022/10/18 11:16:09;;;;;;;;;;;;;;;23.35;50.05;97896.75;5055322;28;19932;-26
2022/10/18 11:18:36;;;;;;;;;;;;;;;23.35;49.60;97891.19;5055281;28;19932;-26
2022/10/18 11:21:10;;;;;;;;;;;;;;;23.37;49.86;97891.50;5055144;28;19919;-27
2022/10/18 11:23:37;;;;;;;;;;;;;;;23.36;49.94;97870.59;5055256;28;19915;-27
2022/10/18 11:26:11;;;;;;;;;;;;;;;23.35;49.64;97874.59;5055097;28;20013;-28
2022/10/18 11:28:37;;;;;;;;;;;;;;;23.27;49.95;97863.88;5055329;28;19991;-26
2022/10/18 11:31:05;;;;;;;;;;;;;;;23.36;49.56;97856.75;5055036;28;20329;-27
2022/10/18 11:33:40;;;;;;;;;;;;;;;23.37;49.91;97861.03;5055136;28;19912;-28
2022/10/18 11:36:11;;;;;;;;;;;;;;;23.27;49.85;97852.81;5054946;28;20382;-26
2022/10/18 11:38:55;;;;;;;;;;;;;;;23.38;49.14;97857.00;5053639;28;20293;-27
2022/10/18 11:41:23;;;;;;;;;;;;;;;23.37;49.09;97855.50;5054865;28;20726;-26
2022/10/18 11:44:12;;;;;;;;;;;;;;;23.36;48.98;97854.75;5054781;28;20389;-26
2022/10/18 11:46:37;;;;;;;;;;;;;;;23.41;48.57;97850.53;5053512;28;20254;-27
2022/10/18 11:49:18;;;;;;;;;;;;;;;23.44;48.69;97839.25;5054627;28;19942;-26
2022/10/18 11:51:46;;;;;;;;;;;;;;;23.39;48.71;97836.38;5054612;28;20047;-27
2022/10/18 11:54:13;;;;;;;;;;;;;;;23.28;48.64;97829.44;5054620;28;19916;-28
2022/10/18 11:56:38;;;;;;;;;;;;;;;23.39;48.88;97830.84;5053643;28;19958;-26
2022/10/18 11:59:03;;;;;;;;;;;;;;;23.37;48.73;97827.81;5061240;28;19908;-26
2022/10/18 12:01:34;;;;;;;;;;;;;;;23.40;48.65;97826.84;5072243;28;19999;-27
2022/10/18 12:04:06;;;;;;;;;;;;;;;23.41;49.01;97828.38;5058048;28;20034;-27
2022/10/18 12:06:38;;;;;;;;;;;;;;;23.36;48.93;97826.28;5052486;28;19909;-26
2022/10/18 12:09:27;;;;;;;;;;;;;;;23.42;48.72;97816.81;5052356;28;19908;-27
2022/10/18 12:11:57;;;;;;;;;;;;;;;23.42;48.85;97818.81;5054311;28;19913;-27
2022/10/18 12:14:48;;;;;;;;;;;;;;;23.44;48.59;97811.56;5052282;28;19915;-26
2022/10/18 12:17:21;;;;;;;;;;;;;;;23.45;48.84;97815.09;5051079;28;19912;-27
2022/10/18 12:19:48;;;;;;;;;;;;;;;23.41;48.80;97815.28;5052028;28;19917;-27
2022/10/18 12:22:18;;;;;;;;;;;;;;;23.43;48.63;97809.28;5051781;28;19944;-28
2022/10/18 12:24:44;;;;;;;;;;;;;;;23.42;48.59;97802.22;5052103;28;20361;-26
2022/10/18 12:27:12;;;;;;;;;;;;;;;23.44;48.90;97810.81;5052174;28;19916;-27
2022/10/18 12:29:37;;;;;;;;;;;;;;;23.44;48.87;97800.50;5050166;28;19916;-26
2022/10/18 12:32:11;;;;;;;;;;;;;;;23.44;48.66;97799.72;5051931;28;19912;-27
2022/10/18 12:34:56;;;;;;;;;;;;;;;23.41;48.90;97795.91;5051993;28;19987;-27
2022/10/18 12:37:25;;;;;;;;;;;;;;;23.43;48.65;97798.22;5051798;28;20377;-26
2022/10/18 12:39:50;;;;;;;;;;;;;;;23.43;48.65;97782.34;5051643;28;19921;-26
2022/10/18 12:42:24;;;;;;;;;;;;;;;23.44;48.56;97777.59;5051816;28;20441;-27
2022/10/18 12:44:59;;;;;;;;;;;;;;;23.47;48.58;97776.63;5051657;28;19915;-28
2022/10/18 12:47:25;;;;;;;;;;;;;;;23.43;48.65;97759.44;5051758;28;19912;-27
2022/10/18 12:49:58;;;;;;;;;;;;;;;23.44;48.80;97767.28;5051938;28;20288;-27
2022/10/18 12:52:25;;;;;;;;;;;;;;;23.46;48.75;97764.03;5063460;28;19908;-26
2022/10/18 12:54:59;;;;;;;;;;;;;;;23.42;48.71;97760.69;5071793;28;20092;-27